Terminal Aerodrome Forecast
Issued by NWS

Home | Current Version | Previous Version | Text Only | Print | Product List | Glossary On
Versions: 1 2 3 4 5 6 7 8 9 10 11 12 13 14 15 16 17 18
000
FTAK31 PANC 231731
TAFAIL
TAF
PAIL 231731Z 2318/2418 09015KT P6SM VCSH SCT030 OVC050
      WS020/11040KT
     FM232000 08015G25KT P6SM -SHSN SCT025 OVC040 WS020/12050KT
     FM240600 11010KT P6SM VCSH SCT025 OVC035 WS020/14040KT=

USA.gov is the U.S. government's official web portal to all federal, state and local government web resources and services.